Time;durP1;ratioP1;P1;durP2;ratioP2;P2;SDS_P1;SDS_P2;PMS_P1;PMS_P2;Temp;Humidity;BMP_temperature;BMP_pressure;BME280_temperature;BME280_humidity;BME280_pressure;Samples;Min_cycle;Max_cycle;Signal;HPM_P1;HPM_P2
2023/04/23 00:00:29;;;;;;;;;;;;;;;-140.72;100.00;52957.03;5029483;28;19917;-69
2023/04/23 00:02:56;;;;;;;;;;;;;;;-140.72;100.00;52900.19;5052880;28;19965;-68
2023/04/23 00:05:24;;;;;;;;;;;;;;;-140.72;100.00;52950.94;5028763;28;20020;-69
2023/04/23 00:07:49;;;;;;;;;;;;;;;-140.72;100.00;52900.19;5025936;28;19928;-70
2023/04/23 00:10:15;;;;;;;;;;;;;;;-140.72;100.00;52906.28;5031344;28;19925;-69
2023/04/23 00:12:41;;;;;;;;;;;;;;;-140.72;100.00;52942.81;5035416;28;19922;-69
2023/04/23 00:15:06;;;;;;;;;;;;;;;-140.72;100.00;52930.66;5034855;28;19926;-70
2023/04/23 00:17:32;;;;;;;;;;;;;;;-140.72;100.00;52902.22;5028711;28;19921;-70
2023/04/23 00:19:57;;;;;;;;;;;;;;;-140.72;100.00;52916.44;5036225;28;20375;-70
2023/04/23 00:22:22;;;;;;;;;;;;;;;-140.72;100.00;52944.84;5053117;28;19921;-70
2023/04/23 00:24:47;;;;;;;;;;;;;;;-140.72;100.00;52942.81;5026485;28;19921;-70
2023/04/23 00:27:13;;;;;;;;;;;;;;;-140.72;100.00;52908.31;5028497;28;19953;-70
2023/04/23 00:29:38;;;;;;;;;;;;;;;-140.72;100.00;52890.06;5025076;28;19929;-70
2023/04/23 00:32:03;;;;;;;;;;;;;;;-140.72;100.00;52922.53;5019972;28;19943;-70
2023/04/23 00:34:28;;;;;;;;;;;;;;;-140.72;100.00;52916.44;5028510;28;21620;-69
2023/04/23 00:37:06;;;;;;;;;;;;;;;-140.72;100.00;52906.28;5040021;28;20346;-69
2023/04/23 00:39:32;;;;;;;;;;;;;;;-140.72;100.00;52934.69;5026158;28;19917;-70
2023/04/23 00:45:00;;;;;;;;;;;;;;;-140.72;100.00;52959.06;5029729;28;20004;-69
2023/04/23 00:47:27;;;;;;;;;;;;;;;-140.72;100.00;52896.16;5057529;27;19928;-69
2023/04/23 00:49:54;;;;;;;;;;;;;;;-140.72;100.00;52934.69;5030833;28;19956;-70
2023/04/23 00:52:21;;;;;;;;;;;;;;;-140.72;100.00;52940.78;5027873;28;19928;-70
2023/04/23 00:54:46;;;;;;;;;;;;;;;-140.72;100.00;52938.75;5023915;28;20356;-70
2023/04/23 00:57:16;;;;;;;;;;;;;;;-140.72;100.00;52930.66;5030339;28;19928;-69
2023/04/23 00:59:41;;;;;;;;;;;;;;;-140.72;100.00;52914.41;5031514;28;19925;-70
2023/04/23 01:02:06;;;;;;;;;;;;;;;-140.72;100.00;52932.66;5030689;28;19922;-70
2023/04/23 01:04:32;;;;;;;;;;;;;;;-140.72;100.00;52926.59;5026452;28;19917;-70
2023/04/23 01:06:57;;;;;;;;;;;;;;;-140.72;100.00;52940.78;5032490;28;20024;-68
2023/04/23 01:09:23;;;;;;;;;;;;;;;-140.72;100.00;52942.81;5025490;28;19965;-70
2023/04/23 01:11:50;;;;;;;;;;;;;;;-140.72;100.00;52926.59;5025806;28;19966;-70
2023/04/23 01:14:16;;;;;;;;;;;;;;;-140.72;100.00;52910.34;5034533;28;19925;-71
2023/04/23 01:16:41;;;;;;;;;;;;;;;-140.72;100.00;52938.75;5031625;28;20294;-70
2023/04/23 01:19:07;;;;;;;;;;;;;;;-140.72;100.00;52922.53;5018214;28;19925;-70
2023/04/23 01:21:33;;;;;;;;;;;;;;;-140.72;100.00;52950.94;5029114;28;19954;-70
2023/04/23 01:23:58;;;;;;;;;;;;;;;-140.72;100.00;52952.97;5031646;28;19921;-70
2023/04/23 01:26:24;;;;;;;;;;;;;;;-140.72;100.00;52924.56;5031815;28;19925;-70
2023/04/23 01:28:50;;;;;;;;;;;;;;;-140.72;100.00;52955.00;5039862;28;19928;-70
2023/04/23 01:31:15;;;;;;;;;;;;;;;-140.72;100.00;52920.50;5030624;28;19933;-70
2023/04/23 01:33:42;;;;;;;;;;;;;;;-140.72;100.00;52934.69;5036739;28;19932;-70
2023/04/23 01:36:07;;;;;;;;;;;;;;;-140.72;100.00;52908.31;5034019;28;20012;-70
2023/04/23 01:38:33;;;;;;;;;;;;;;;-140.72;100.00;52940.78;5036857;28;20019;-70
2023/04/23 01:40:58;;;;;;;;;;;;;;;-140.72;100.00;52922.53;5030875;28;19921;-70
2023/04/23 01:43:23;;;;;;;;;;;;;;;-140.72;100.00;52957.03;5045995;28;19929;-70
2023/04/23 01:45:49;;;;;;;;;;;;;;;-140.72;100.00;52924.56;5032346;28;19925;-70
2023/04/23 01:48:14;;;;;;;;;;;;;;;-140.72;100.00;52914.41;5031110;28;19922;-68
2023/04/23 01:50:40;;;;;;;;;;;;;;;-140.72;100.00;52934.69;5031328;28;19929;-69
2023/04/23 01:53:05;;;;;;;;;;;;;;;-140.72;100.00;52967.16;5032797;28;19927;-69
2023/04/23 01:55:31;;;;;;;;;;;;;;;-140.72;100.00;52914.41;5032221;28;19926;-68
2023/04/23 01:57:56;;;;;;;;;;;;;;;-140.72;100.00;52936.72;5034529;28;19974;-68
2023/04/23 02:00:22;;;;;;;;;;;;;;;-140.72;100.00;52888.03;5027922;28;19921;-69
2023/04/23 02:02:47;;;;;;;;;;;;;;;-140.72;100.00;52924.56;5029979;28;19921;-69
2023/04/23 02:05:15;;;;;;;;;;;;;;;-140.72;100.00;52881.94;5028538;28;20012;-68
2023/04/23 02:07:41;;;;;;;;;;;;;;;-140.72;100.00;52934.69;5032092;28;19927;-69
2023/04/23 02:10:07;;;;;;;;;;;;;;;-140.72;100.00;52894.13;5026259;28;20412;-69
2023/04/23 02:12:32;;;;;;;;;;;;;;;-140.72;100.00;52928.63;5041844;28;19921;-69
2023/04/23 02:14:57;;;;;;;;;;;;;;;-140.72;100.00;52896.16;5038641;28;20306;-68
2023/04/23 02:17:22;;;;;;;;;;;;;;;-140.72;100.00;52936.72;5039297;28;20042;-69
2023/04/23 02:19:48;;;;;;;;;;;;;;;-140.72;100.00;52908.31;5030491;28;19964;-69
2023/04/23 02:22:14;;;;;;;;;;;;;;;-140.72;100.00;52959.06;5027789;28;20371;-69
2023/04/23 02:24:40;;;;;;;;;;;;;;;-140.72;100.00;52918.47;5031633;28;20385;-69
2023/04/23 02:27:21;;;;;;;;;;;;;;;-140.72;100.00;52926.59;5029333;28;20027;-69
2023/04/23 02:29:47;;;;;;;;;;;;;;;-140.72;100.00;52916.44;5028307;28;19975;-69
2023/04/23 02:32:12;;;;;;;;;;;;;;;-140.72;100.00;52936.72;5032348;28;19924;-69
2023/04/23 02:34:47;;;;;;;;;;;;;;;-140.72;100.00;52922.53;5027939;28;19928;-69
2023/04/23 02:37:12;;;;;;;;;;;;;;;-140.72;100.00;52892.09;5027371;28;19925;-69
2023/04/23 02:39:43;;;;;;;;;;;;;;;-140.72;100.00;52898.16;5026908;28;19917;-69
2023/04/23 02:42:08;;;;;;;;;;;;;;;-140.72;100.00;52890.06;5025718;28;19924;-69
2023/04/23 02:44:34;;;;;;;;;;;;;;;-140.72;100.00;52867.72;5024415;28;20427;-69
2023/04/23 02:47:05;;;;;;;;;;;;;;;-140.72;100.00;52910.34;5033345;28;19962;-69
2023/04/23 02:49:30;;;;;;;;;;;;;;;-140.72;100.00;52918.47;5017996;28;19922;-69
2023/04/23 02:52:08;;;;;;;;;;;;;;;-140.72;100.00;52881.94;5024459;28;19922;-69
2023/04/23 02:54:35;;;;;;;;;;;;;;;-140.72;100.00;52883.97;5024334;28;19970;-69
2023/04/23 02:57:01;;;;;;;;;;;;;;;-140.72;100.00;52944.84;5026662;28;19946;-69
2023/04/23 02:59:39;;;;;;;;;;;;;;;-140.72;100.00;52946.88;5035694;28;19917;-69
2023/04/23 03:02:05;;;;;;;;;;;;;;;-140.72;100.00;52918.47;5022840;28;19969;-69
2023/04/23 03:04:30;;;;;;;;;;;;;;;-140.72;100.00;52926.59;5021536;28;20313;-69
2023/04/23 03:06:55;;;;;;;;;;;;;;;-140.72;100.00;52906.28;5021444;28;20494;-69
2023/04/23 03:09:20;;;;;;;;;;;;;;;-140.72;100.00;52906.28;5034707;28;19925;-69
2023/04/23 03:11:46;;;;;;;;;;;;;;;-140.72;100.00;52926.59;5028592;28;19927;-69
2023/04/23 03:14:11;;;;;;;;;;;;;;;-140.72;100.00;52898.16;5041887;28;19921;-70
2023/04/23 03:16:37;;;;;;;;;;;;;;;-140.72;100.00;52875.84;5044114;28;20025;-70
2023/04/23 03:19:02;;;;;;;;;;;;;;;-140.72;100.00;52900.19;5027596;28;19979;-69
2023/04/23 03:21:27;;;;;;;;;;;;;;;-140.72;100.00;52922.53;5039133;28;19925;-70
2023/04/23 03:23:52;;;;;;;;;;;;;;;-140.72;100.00;52883.97;5024944;28;20371;-69
2023/04/23 03:26:18;;;;;;;;;;;;;;;-140.72;100.00;52906.28;5028201;28;19917;-69
2023/04/23 03:28:43;;;;;;;;;;;;;;;-140.72;100.00;52900.19;5032234;28;19925;-69
2023/04/23 03:31:08;;;;;;;;;;;;;;;-140.72;100.00;52914.41;5025673;28;19917;-70
2023/04/23 03:33:33;;;;;;;;;;;;;;;-140.72;100.00;52934.69;5021220;28;20317;-70
2023/04/23 03:35:59;;;;;;;;;;;;;;;-140.72;100.00;52875.84;5029553;28;20388;-70
2023/04/23 03:38:24;;;;;;;;;;;;;;;-140.72;100.00;52926.59;5027475;28;20298;-70
2023/04/23 03:40:50;;;;;;;;;;;;;;;-140.72;100.00;52894.13;5027453;28;19959;-69
2023/04/23 03:43:15;;;;;;;;;;;;;;;-140.72;100.00;52928.63;5022913;28;20326;-69
2023/04/23 03:45:40;;;;;;;;;;;;;;;-140.72;100.00;52890.06;5017268;28;20342;-69
2023/04/23 03:48:06;;;;;;;;;;;;;;;-140.72;100.00;52938.75;5036953;28;19925;-70
2023/04/23 03:50:33;;;;;;;;;;;;;;;-140.72;100.00;52944.84;5040367;28;19921;-70
2023/04/23 03:52:58;;;;;;;;;;;;;;;-140.72;100.00;52932.66;5031015;28;19917;-69
2023/04/23 03:55:23;;;;;;;;;;;;;;;-140.72;100.00;52890.06;5031676;28;19970;-69
2023/04/23 03:57:49;;;;;;;;;;;;;;;-140.72;100.00;52963.13;5026279;28;19921;-69
2023/04/23 04:00:14;;;;;;;;;;;;;;;-140.72;100.00;52900.19;5036374;28;20386;-69
2023/04/23 04:02:39;;;;;;;;;;;;;;;-140.72;100.00;52934.69;5072377;27;19927;-69
2023/04/23 04:05:05;;;;;;;;;;;;;;;-140.72;100.00;52946.88;5042336;28;19917;-69
2023/04/23 04:07:30;;;;;;;;;;;;;;;-140.72;100.00;52894.13;5016824;28;19936;-69
2023/04/23 04:09:55;;;;;;;;;;;;;;;-140.72;100.00;52908.31;5028093;28;20530;-69
2023/04/23 04:12:21;;;;;;;;;;;;;;;-140.72;100.00;52934.69;5028411;28;20409;-69
2023/04/23 04:14:46;;;;;;;;;;;;;;;-140.72;100.00;52926.59;5034405;28;19982;-69
2023/04/23 04:17:13;;;;;;;;;;;;;;;-140.72;100.00;52908.31;5029900;28;20003;-69
2023/04/23 04:19:39;;;;;;;;;;;;;;;-140.72;100.00;52908.31;5030795;28;19917;-69
2023/04/23 04:22:04;;;;;;;;;;;;;;;-140.72;100.00;52914.41;5029769;28;19934;-69
2023/04/23 04:24:31;;;;;;;;;;;;;;;-140.72;100.00;52881.94;5027815;28;19964;-70
2023/04/23 04:26:57;;;;;;;;;;;;;;;-140.72;100.00;52914.41;5030481;28;19974;-70
2023/04/23 04:29:22;;;;;;;;;;;;;;;-140.72;100.00;52942.81;5031430;28;19917;-69
2023/04/23 04:31:47;;;;;;;;;;;;;;;-140.72;100.00;52898.16;5030789;28;19925;-69
2023/04/23 04:34:13;;;;;;;;;;;;;;;-140.72;100.00;52942.81;5019257;28;19928;-69
2023/04/23 04:36:40;;;;;;;;;;;;;;;-140.72;100.00;52879.91;5028555;28;19928;-68
2023/04/23 04:39:05;;;;;;;;;;;;;;;-140.72;100.00;52918.47;5026235;28;19932;-69
2023/04/23 04:41:30;;;;;;;;;;;;;;;-140.72;100.00;52912.38;5030847;28;19982;-69
2023/04/23 04:43:57;;;;;;;;;;;;;;;-140.72;100.00;52883.97;5033343;28;20383;-69
2023/04/23 04:46:22;;;;;;;;;;;;;;;-140.72;100.00;52904.25;5016747;28;19941;-69
2023/04/23 04:48:48;;;;;;;;;;;;;;;-140.72;100.00;52920.50;5018795;28;20379;-69
2023/04/23 04:51:13;;;;;;;;;;;;;;;-140.72;100.00;52918.47;5028885;28;19917;-70
2023/04/23 04:53:38;;;;;;;;;;;;;;;-140.72;100.00;52904.25;5031581;28;19917;-69
2023/04/23 04:56:03;;;;;;;;;;;;;;;-140.72;100.00;52914.41;5028210;28;19932;-70
2023/04/23 04:58:29;;;;;;;;;;;;;;;-140.72;100.00;52894.13;5030819;28;19928;-70
2023/04/23 05:00:54;;;;;;;;;;;;;;;-140.72;100.00;52902.22;5021584;28;19956;-70
2023/04/23 05:03:20;;;;;;;;;;;;;;;-140.72;100.00;52908.31;5016196;28;19938;-70
2023/04/23 05:05:45;;;;;;;;;;;;;;;-140.72;100.00;52910.34;5020744;28;19959;-70
2023/04/23 05:08:11;;;;;;;;;;;;;;;-140.72;100.00;52888.03;5028791;28;19925;-70
2023/04/23 05:13:39;;;;;;;;;;;;;;;-140.72;100.00;52906.28;5029125;28;19943;-70
2023/04/23 05:16:04;;;;;;;;;;;;;;;-140.72;100.00;52890.06;5030439;28;19917;-70
2023/04/23 05:18:29;;;;;;;;;;;;;;;-140.72;100.00;52930.66;5025950;28;20052;-69
2023/04/23 05:20:55;;;;;;;;;;;;;;;-140.72;100.00;52898.16;5019173;28;19961;-69
2023/04/23 05:23:20;;;;;;;;;;;;;;;-140.72;100.00;52930.66;5023888;28;19925;-69
2023/04/23 05:25:45;;;;;;;;;;;;;;;-140.72;100.00;52906.28;5019702;28;19924;-70
2023/04/23 05:28:11;;;;;;;;;;;;;;;-140.72;100.00;52918.47;5020206;28;19925;-70
2023/04/23 05:30:36;;;;;;;;;;;;;;;-140.72;100.00;52910.34;5033424;28;20361;-70
2023/04/23 05:33:01;;;;;;;;;;;;;;;-140.72;100.00;52928.63;5020196;28;20038;-69
2023/04/23 05:35:27;;;;;;;;;;;;;;;-140.72;100.00;52918.47;5025299;28;19943;-70
2023/04/23 05:37:53;;;;;;;;;;;;;;;-140.72;100.00;52920.50;5028552;28;20371;-69
2023/04/23 05:40:19;;;;;;;;;;;;;;;-140.72;100.00;52894.13;5032469;28;19924;-72
2023/04/23 05:42:44;;;;;;;;;;;;;;;-140.72;100.00;52904.25;5028553;28;19917;-71
2023/04/23 05:45:09;;;;;;;;;;;;;;;-140.72;100.00;52908.31;5021252;28;19924;-74
2023/04/23 05:47:38;;;;;;;;;;;;;;;-140.72;100.00;52892.09;5028803;28;20286;-73
2023/04/23 05:50:17;;;;;;;;;;;;;;;-140.72;100.00;52894.13;5030171;28;19939;-73
2023/04/23 05:52:42;;;;;;;;;;;;;;;-140.72;100.00;52890.06;5018452;28;19924;-73
2023/04/23 05:55:10;;;;;;;;;;;;;;;-140.72;100.00;52892.09;5028663;28;19924;-73
2023/04/23 05:57:48;;;;;;;;;;;;;;;-140.72;100.00;52890.06;5040430;28;19921;-73
2023/04/23 06:00:13;;;;;;;;;;;;;;;-140.72;100.00;52898.16;5026708;28;20363;-73
2023/04/23 06:02:39;;;;;;;;;;;;;;;-140.72;100.00;52877.88;5026380;28;19917;-73
2023/04/23 06:05:05;;;;;;;;;;;;;;;-140.72;100.00;52877.88;5026720;28;19917;-73
2023/04/23 06:07:30;;;;;;;;;;;;;;;-140.72;100.00;52871.78;5029077;28;19921;-73
2023/04/23 06:09:55;;;;;;;;;;;;;;;-140.72;100.00;52910.34;5031865;28;19933;-72
2023/04/23 06:12:20;;;;;;;;;;;;;;;-140.72;100.00;52859.63;5031843;28;20345;-72
2023/04/23 06:14:46;;;;;;;;;;;;;;;-140.72;100.00;52873.81;5029073;28;19917;-73
2023/04/23 06:17:12;;;;;;;;;;;;;;;-140.72;100.00;52853.53;5033305;28;19961;-73
2023/04/23 06:19:37;;;;;;;;;;;;;;;-140.72;100.00;52886.00;5026206;28;20407;-73
2023/04/23 06:22:02;;;;;;;;;;;;;;;-140.72;100.00;52865.69;5028740;28;19929;-73
2023/04/23 06:27:32;;;;;;;;;;;;;;;-140.72;100.00;52904.25;5043902;27;19957;-69
2023/04/23 06:30:16;;;;;;;;;;;;;;;-140.72;100.00;52877.88;5032551;28;20321;-69
2023/04/23 06:32:42;;;;;;;;;;;;;;;-140.72;100.00;52863.66;5022581;28;19921;-70
2023/04/23 06:35:07;;;;;;;;;;;;;;;-140.72;100.00;52869.75;5032736;28;19963;-69
2023/04/23 06:37:32;;;;;;;;;;;;;;;-140.72;100.00;52853.53;5035224;28;19966;-69
2023/04/23 06:39:58;;;;;;;;;;;;;;;-140.72;100.00;52808.88;5036190;28;19996;-71
2023/04/23 06:42:23;;;;;;;;;;;;;;;-140.72;100.00;52829.19;5031819;28;19924;-71
2023/04/23 06:47:51;;;;;;;;;;;;;;;-140.72;100.00;52859.63;5044332;28;20370;-71
2023/04/23 06:50:16;;;;;;;;;;;;;;;-140.72;100.00;52853.53;5024520;28;19917;-71
2023/04/23 06:53:04;;;;;;;;;;;;;;;-140.72;100.00;52817.00;5022415;28;19943;-72
2023/04/23 06:55:30;;;;;;;;;;;;;;;-140.72;100.00;52786.56;5021446;28;19967;-72
2023/04/23 06:57:55;;;;;;;;;;;;;;;-140.72;100.00;52859.63;5023437;28;19921;-71
2023/04/23 07:00:32;;;;;;;;;;;;;;;-140.72;100.00;52841.34;5031046;28;19931;-71
2023/04/23 07:02:57;;;;;;;;;;;;;;;-140.72;100.00;52825.13;5030187;28;19924;-72
2023/04/23 07:05:22;;;;;;;;;;;;;;;-140.72;100.00;52831.19;5033503;28;19917;-72
2023/04/23 07:10:50;;;;;;;;;;;;;;;-140.72;100.00;52849.47;5019513;28;20282;-72
2023/04/23 07:13:16;;;;;;;;;;;;;;;-140.72;100.00;52857.59;5025121;28;19917;-72
2023/04/23 07:15:41;;;;;;;;;;;;;;;-140.72;100.00;52863.66;5026308;28;20004;-71
2023/04/23 07:18:19;;;;;;;;;;;;;;;-140.72;100.00;52821.06;5029993;28;19956;-72
2023/04/23 07:20:44;;;;;;;;;;;;;;;-140.72;100.00;52808.88;5029874;28;19968;-72
2023/04/23 07:23:09;;;;;;;;;;;;;;;-140.72;100.00;52831.19;5028417;28;19957;-72
2023/04/23 07:25:35;;;;;;;;;;;;;;;-140.72;100.00;52825.13;5069432;27;19917;-70
2023/04/23 07:28:00;;;;;;;;;;;;;;;-140.72;100.00;52819.03;5028615;28;19952;-71
2023/04/23 07:30:26;;;;;;;;;;;;;;;-140.72;100.00;52798.72;5017927;28;19931;-72
2023/04/23 07:32:51;;;;;;;;;;;;;;;-140.72;100.00;52808.88;5030685;28;20045;-71
2023/04/23 07:35:20;;;;;;;;;;;;;;;-140.72;100.00;52804.81;5026402;28;20007;-72
2023/04/23 07:37:46;;;;;;;;;;;;;;;-140.72;100.00;52821.06;5030181;28;20378;-71
2023/04/23 07:40:11;;;;;;;;;;;;;;;-140.72;100.00;52780.47;5030548;28;19921;-72
2023/04/23 07:42:36;;;;;;;;;;;;;;;-140.72;100.00;52778.44;5019990;28;19921;-72
2023/04/23 07:45:02;;;;;;;;;;;;;;;-140.72;100.00;52772.34;5030172;28;19917;-71
2023/04/23 07:47:27;;;;;;;;;;;;;;;-140.72;100.00;52768.28;5025182;28;19948;-72
2023/04/23 07:49:52;;;;;;;;;;;;;;;-140.72;100.00;52812.94;5030193;28;20378;-72
2023/04/23 07:52:17;;;;;;;;;;;;;;;-140.72;100.00;52772.34;5025683;28;19924;-71
2023/04/23 07:54:43;;;;;;;;;;;;;;;-140.72;100.00;52788.59;5031796;28;19971;-70
2023/04/23 07:57:09;;;;;;;;;;;;;;;-140.72;100.00;52770.31;5031305;28;19921;-71
2023/04/23 07:59:34;;;;;;;;;;;;;;;-140.72;100.00;52788.59;5029469;28;20307;-70
2023/04/23 08:01:59;;;;;;;;;;;;;;;-140.72;100.00;52739.88;5032275;27;19918;-71
2023/04/23 08:04:25;;;;;;;;;;;;;;;-140.72;100.00;52784.53;5071737;28;19966;-71
2023/04/23 08:06:50;;;;;;;;;;;;;;;-140.72;100.00;52772.34;5028724;28;20035;-72
2023/04/23 08:09:15;;;;;;;;;;;;;;;-140.72;100.00;52760.19;5068725;28;19975;-74
2023/04/23 08:11:41;;;;;;;;;;;;;;;-140.72;100.00;52750.03;5030759;28;19921;-72
2023/04/23 08:14:06;;;;;;;;;;;;;;;-140.72;100.00;52752.06;5019896;28;19974;-72
2023/04/23 08:16:31;;;;;;;;;;;;;;;-140.72;100.00;52758.16;5029360;28;20268;-71
2023/04/23 08:18:57;;;;;;;;;;;;;;;-140.72;100.00;52762.22;5051728;28;19945;-72
2023/04/23 08:21:23;;;;;;;;;;;;;;;-140.72;100.00;52743.94;5027278;28;19924;-70
2023/04/23 08:23:48;;;;;;;;;;;;;;;-140.72;100.00;52727.72;5048845;28;19921;-70
2023/04/23 08:26:13;;;;;;;;;;;;;;;-140.72;100.00;52711.47;5024690;28;19917;-71
2023/04/23 08:28:39;;;;;;;;;;;;;;;-140.72;100.00;52733.78;5049955;28;19921;-70
2023/04/23 08:31:04;;;;;;;;;;;;;;;-140.72;100.00;52703.34;5031275;28;19928;-70
2023/04/23 08:33:30;;;;;;;;;;;;;;;-140.72;100.00;52741.91;5027240;28;19924;-72
2023/04/23 08:35:55;;;;;;;;;;;;;;;-140.72;100.00;52699.31;5026371;28;19921;-72
2023/04/23 08:38:20;;;;;;;;;;;;;;;-140.72;100.00;52691.19;5038558;28;20367;-71
2023/04/23 08:40:48;;;;;;;;;;;;;;;-140.72;100.00;52754.09;5032422;28;20432;-70
2023/04/23 08:43:18;;;;;;;;;;;;;;;-140.72;100.00;52750.03;5025211;28;19966;-70
2023/04/23 08:45:46;;;;;;;;;;;;;;;-140.72;100.00;52717.56;5026490;28;19928;-70
2023/04/23 08:48:11;;;;;;;;;;;;;;;-140.72;100.00;52646.53;5037739;28;19925;-70
2023/04/23 08:50:37;;;;;;;;;;;;;;;-140.72;100.00;52711.47;5029082;28;19921;-70
2023/04/23 08:53:03;;;;;;;;;;;;;;;-140.72;100.00;52691.19;5028803;28;19921;-75
2023/04/23 08:55:28;;;;;;;;;;;;;;;-140.72;100.00;52703.34;5028843;28;20028;-70
2023/04/23 08:57:55;;;;;;;;;;;;;;;-140.72;100.00;52646.53;5044269;28;19919;-70
2023/04/23 09:00:21;;;;;;;;;;;;;;;-140.72;100.00;52601.91;5076391;27;19970;-70
2023/04/23 09:02:47;;;;;;;;;;;;;;;-140.72;100.00;52599.88;5021863;28;20008;-70
2023/04/23 09:05:14;;;;;;;;;;;;;;;-140.72;100.00;52658.72;5030110;28;19925;-69
2023/04/23 09:07:40;;;;;;;;;;;;;;;-140.72;100.00;52618.13;5027591;28;19922;-69
2023/04/23 09:13:13;;;;;;;;;;;;;;;-140.72;100.00;52622.19;5017610;28;20127;-71
2023/04/23 09:15:42;;;;;;;;;;;;;;;-140.72;100.00;52605.94;5020795;28;19964;-70
2023/04/23 09:18:07;;;;;;;;;;;;;;;-140.72;100.00;52622.19;5019062;28;19949;-78
2023/04/23 09:20:42;;;;;;;;;;;;;;;-140.72;100.00;52624.22;5028581;28;19956;-72
2023/04/23 09:23:27;;;;;;;;;;;;;;;-140.72;100.00;52567.41;5040739;28;19933;-71
2023/04/23 09:28:54;;;;;;;;;;;;;;;-140.72;100.00;52618.13;5032161;28;19917;-70
2023/04/23 09:31:21;;;;;;;;;;;;;;;-140.72;100.00;52585.66;5033602;28;20272;-72
2023/04/23 09:33:51;;;;;;;;;;;;;;;-140.72;100.00;52605.94;5026591;28;19924;-72
2023/04/23 09:36:30;;;;;;;;;;;;;;;-140.72;100.00;52614.06;5032080;28;19917;-71
2023/04/23 09:39:01;;;;;;;;;;;;;;;-140.72;100.00;52614.06;5025498;28;20023;-72
2023/04/23 09:41:27;;;;;;;;;;;;;;;-140.72;100.00;52628.28;5029554;28;20020;-72
2023/04/23 09:43:59;;;;;;;;;;;;;;;-140.72;100.00;52660.75;5023430;28;19956;-71
2023/04/23 09:49:23;;;;;;;;;;;;;;;-140.72;100.00;52642.47;5018530;28;19975;-72
2023/04/23 09:51:48;;;;;;;;;;;;;;;-140.72;100.00;52626.25;5032519;28;19917;-73
2023/04/23 09:54:15;;;;;;;;;;;;;;;-140.72;100.00;52634.38;5036486;28;20469;-72
2023/04/23 09:56:41;;;;;;;;;;;;;;;-140.72;100.00;52652.63;5024270;28;19940;-72
2023/04/23 09:59:24;;;;;;;;;;;;;;;-140.72;100.00;52622.19;5034605;28;20014;-70
2023/04/23 10:01:50;;;;;;;;;;;;;;;-140.72;100.00;52593.78;5034237;28;20016;-70
2023/04/23 10:04:20;;;;;;;;;;;;;;;-140.72;100.00;52547.09;5047240;28;20417;-70
2023/04/23 10:06:45;;;;;;;;;;;;;;;-140.72;100.00;52577.53;5026350;28;19925;-69
2023/04/23 10:09:11;;;;;;;;;;;;;;;-140.72;77.27;52585.66;5052332;28;20080;-70
2023/04/23 10:11:36;;;;;;;;;;;;;;;-140.72;79.06;52557.25;5046627;28;19925;-70
2023/04/23 10:14:02;;;;;;;;;;;;;;;-140.72;95.60;52575.50;5022602;28;20346;-69
2023/04/23 10:16:28;;;;;;;;;;;;;;;-140.72;78.67;52569.44;5030154;28;19925;-69
2023/04/23 10:18:55;;;;;;;;;;;;;;;-140.72;66.95;52575.50;5036673;28;19917;-70
2023/04/23 10:21:23;;;;;;;;;;;;;;;-140.72;31.96;52599.88;5026324;28;20380;-70
2023/04/23 10:23:50;;;;;;;;;;;;;;;-140.72;35.59;52565.38;5021542;28;20025;-70
2023/04/23 10:26:15;;;;;;;;;;;;;;;-140.72;14.53;52573.50;5027615;28;20015;-70
2023/04/23 10:28:43;;;;;;;;;;;;;;;-140.72;14.76;52541.03;5038931;28;19960;-70
2023/04/23 10:31:09;;;;;;;;;;;;;;;-140.72;0.00;52587.69;5033872;28;19927;-70
2023/04/23 10:33:36;;;;;;;;;;;;;;;-140.72;0.00;52610.00;5031676;28;19917;-70
2023/04/23 10:36:01;;;;;;;;;;;;;;;-140.72;0.00;52634.38;5032658;28;19932;-70
2023/04/23 10:38:27;;;;;;;;;;;;;;;-140.72;10.02;52650.59;5021272;28;19962;-70
2023/04/23 10:40:54;;;;;;;;;;;;;;;-140.72;1.50;52628.28;5024969;28;19975;-69
2023/04/23 10:43:19;;;;;;;;;;;;;;;-140.72;0.00;52589.72;5029865;28;20344;-69
2023/04/23 10:45:44;;;;;;;;;;;;;;;-140.72;0.00;52589.72;5041501;28;19970;-69
2023/04/23 10:48:10;;;;;;;;;;;;;;;-140.72;0.00;52557.25;5029688;28;19924;-69
2023/04/23 10:50:35;;;;;;;;;;;;;;;-140.72;0.00;52571.47;5031540;28;19921;-70
2023/04/23 10:53:01;;;;;;;;;;;;;;;-140.72;0.00;52559.28;5025517;28;19925;-70
2023/04/23 10:55:27;;;;;;;;;;;;;;;-140.72;0.00;52593.78;5062490;28;20392;-70
2023/04/23 10:57:57;;;;;;;;;;;;;;;-140.72;0.00;52549.13;5031301;28;19929;-70
2023/04/23 11:00:22;;;;;;;;;;;;;;;-140.72;0.00;52612.03;5023614;28;20340;-70
2023/04/23 11:02:49;;;;;;;;;;;;;;;-140.72;0.00;52636.38;5021946;28;19929;-70
2023/04/23 11:05:15;;;;;;;;;;;;;;;-140.72;0.00;52599.88;5032062;28;19931;-70
2023/04/23 11:07:40;;;;;;;;;;;;;;;-140.72;0.00;52670.88;5035995;28;19921;-69
2023/04/23 11:10:12;;;;;;;;;;;;;;;-140.72;0.00;52670.88;5032112;28;20437;-69
2023/04/23 11:12:38;;;;;;;;;;;;;;;-140.72;0.00;52595.81;5031093;28;19929;-69
2023/04/23 11:15:11;;;;;;;;;;;;;;;-140.72;0.00;52666.84;5015990;28;19924;-69
2023/04/23 11:17:36;;;;;;;;;;;;;;;-140.72;0.00;52646.53;5020856;28;19918;-69
2023/04/23 11:20:17;;;;;;;;;;;;;;;-140.72;0.00;52632.34;5030884;28;20294;-71
2023/04/23 11:22:43;;;;;;;;;;;;;;;-140.72;0.00;52589.72;5032300;28;19952;-73
2023/04/23 11:25:10;;;;;;;;;;;;;;;-140.72;0.00;52595.81;5031312;28;19921;-71
2023/04/23 11:27:37;;;;;;;;;;;;;;;-140.72;0.00;52557.25;5029619;28;19925;-71
2023/04/23 11:30:04;;;;;;;;;;;;;;;-140.72;0.00;52565.38;5018473;28;19981;-73
2023/04/23 11:32:29;;;;;;;;;;;;;;;-140.72;0.00;52553.19;5029593;28;19922;-72
2023/04/23 11:34:56;;;;;;;;;;;;;;;-140.72;0.00;52508.56;5031737;28;20017;-70
2023/04/23 11:37:21;;;;;;;;;;;;;;;-140.72;0.00;52484.19;5031018;28;19921;-70
2023/04/23 11:39:48;;;;;;;;;;;;;;;-140.72;0.00;52472.03;5042751;28;19927;-69
2023/04/23 11:42:14;;;;;;;;;;;;;;;-140.72;0.00;52532.91;5036711;28;20002;-69
2023/04/23 11:44:41;;;;;;;;;;;;;;;-140.72;0.00;52488.25;5031395;28;19921;-71
2023/04/23 11:47:07;;;;;;;;;;;;;;;-140.72;0.00;52425.34;5033484;28;19917;-71
2023/04/23 11:49:32;;;;;;;;;;;;;;;-140.72;0.00;52401.00;5022076;28;20294;-71
2023/04/23 11:51:58;;;;;;;;;;;;;;;-140.72;0.00;52423.31;5030500;28;20000;-71
2023/04/23 11:54:28;;;;;;;;;;;;;;;-140.72;0.00;52484.19;5028156;28;19925;-71
2023/04/23 11:56:53;;;;;;;;;;;;;;;-140.72;0.00;52447.69;5025081;28;19925;-71
2023/04/23 11:59:19;;;;;;;;;;;;;;;-140.72;0.00;52520.72;5023856;28;19928;-71
2023/04/23 12:01:49;;;;;;;;;;;;;;;-140.72;0.00;52593.78;5024684;28;19921;-72
2023/04/23 12:04:24;;;;;;;;;;;;;;;-140.72;0.00;52569.44;5022007;28;19917;-71
2023/04/23 12:06:50;;;;;;;;;;;;;;;-140.72;0.00;52378.69;5026100;28;20344;-71
2023/04/23 12:09:16;;;;;;;;;;;;;;;-140.72;0.00;52498.41;5027165;28;19924;-71
2023/04/23 12:11:42;;;;;;;;;;;;;;;-140.72;0.00;52553.19;5030841;28;20311;-72
2023/04/23 12:14:08;;;;;;;;;;;;;;;-140.72;0.00;52532.91;5030518;28;19922;-72
2023/04/23 12:16:34;;;;;;;;;;;;;;;-140.72;0.00;52541.03;5052268;28;19927;-72
2023/04/23 12:19:00;;;;;;;;;;;;;;;-140.72;0.00;52565.38;5031224;28;20001;-72
2023/04/23 12:21:27;;;;;;;;;;;;;;;-140.72;0.00;52549.13;5018502;28;20062;-72
2023/04/23 12:23:52;;;;;;;;;;;;;;;-140.72;0.00;52585.66;5024527;28;19941;-71
2023/04/23 12:26:20;;;;;;;;;;;;;;;-140.72;0.00;52536.97;5030469;28;20391;-71
2023/04/23 12:28:57;;;;;;;;;;;;;;;-140.72;0.00;52549.13;5032186;28;19921;-71
2023/04/23 12:31:24;;;;;;;;;;;;;;;-140.72;0.00;52486.22;5077220;27;19977;-71
2023/04/23 12:33:57;;;;;;;;;;;;;;;-140.72;0.00;52536.97;5027460;28;19921;-70
2023/04/23 12:36:25;;;;;;;;;;;;;;;-140.72;0.00;52589.72;5049223;28;19920;-70
2023/04/23 12:39:16;;;;;;;;;;;;;;;-140.72;0.00;52626.25;5033011;28;19925;-70
2023/04/23 12:41:42;;;;;;;;;;;;;;;-140.72;0.00;52601.91;5015568;28;19933;-70